sensor_id;sensor_type;location;lat;lon;timestamp;pressure;altitude;pressure_sealevel;temperature;humidity
69524;BME280;56723;42.694;23.286;2023-04-27T08:50:49;94934.16;;;10.62;40.79
69524;BME280;56723;42.694;23.286;2023-04-27T08:53:21;94938.22;;;10.65;40.83
69524;BME280;56723;42.694;23.286;2023-04-27T08:55:49;94920.91;;;10.57;40.41
69524;BME280;56723;42.694;23.286;2023-04-27T08:58:16;94925.16;;;10.50;40.84
69524;BME280;56723;42.694;23.286;2023-04-27T09:00:43;94931.44;;;10.56;41.15
69524;BME280;56723;42.694;23.286;2023-04-27T09:03:21;94927.91;;;10.88;40.18
69524;BME280;56723;42.694;23.286;2023-04-27T09:05:49;94938.78;;;11.14;39.29
69524;BME280;56723;42.694;23.286;2023-04-27T09:08:47;94930.03;;;11.15;39.37
69524;BME280;56723;42.694;23.286;2023-04-27T09:11:15;94930.53;;;11.41;39.74
69524;BME280;56723;42.694;23.286;2023-04-27T09:13:53;94920.38;;;11.32;38.65
69524;BME280;56723;42.694;23.286;2023-04-27T09:16:25;94927.06;;;11.26;38.91
69524;BME280;56723;42.694;23.286;2023-04-27T09:18:53;94916.63;;;11.34;38.43
69524;BME280;56723;42.694;23.286;2023-04-27T09:21:28;94902.63;;;11.43;39.92
69524;BME280;56723;42.694;23.286;2023-04-27T09:23:55;94920.63;;;11.91;38.32
69524;BME280;56723;42.694;23.286;2023-04-27T09:26:24;94939.09;;;12.10;37.18
69524;BME280;56723;42.694;23.286;2023-04-27T09:28:53;94923.53;;;12.10;36.72
69524;BME280;56723;42.694;23.286;2023-04-27T09:31:33;94921.06;;;11.94;37.67
69524;BME280;56723;42.694;23.286;2023-04-27T09:34:01;94906.88;;;12.05;37.27
69524;BME280;56723;42.694;23.286;2023-04-27T09:36:29;94911.88;;;12.06;37.18
69524;BME280;56723;42.694;23.286;2023-04-27T09:39:01;94908.22;;;12.01;37.06
69524;BME280;56723;42.694;23.286;2023-04-27T09:41:31;94894.94;;;11.96;37.29
69524;BME280;56723;42.694;23.286;2023-04-27T09:43:59;94909.41;;;11.90;37.29
69524;BME280;56723;42.694;23.286;2023-04-27T09:46:28;94888.66;;;11.90;38.15
69524;BME280;56723;42.694;23.286;2023-04-27T09:48:56;94893.66;;;11.92;37.30
69524;BME280;56723;42.694;23.286;2023-04-27T09:51:23;94886.94;;;11.83;37.17
69524;BME280;56723;42.694;23.286;2023-04-27T09:53:51;94900.75;;;11.75;37.16
69524;BME280;56723;42.694;23.286;2023-04-27T10:07:27;94884.53;;;11.81;36.48
69524;BME280;56723;42.694;23.286;2023-04-27T10:10:00;94894.16;;;12.10;35.99
69524;BME280;56723;42.694;23.286;2023-04-27T10:12:35;94888.69;;;12.05;35.76
69524;BME280;56723;42.694;23.286;2023-04-27T10:15:13;94891.72;;;12.08;36.38
69524;BME280;56723;42.694;23.286;2023-04-27T10:17:51;94891.13;;;12.21;35.84
69524;BME280;56723;42.694;23.286;2023-04-27T10:20:30;94878.13;;;12.36;35.45
69524;BME280;56723;42.694;23.286;2023-04-27T10:22:58;94872.47;;;12.62;34.70
69524;BME280;56723;42.694;23.286;2023-04-27T10:25:37;94875.28;;;12.60;34.84
69524;BME280;56723;42.694;23.286;2023-04-27T10:28:04;94869.59;;;12.71;34.39
69524;BME280;56723;42.694;23.286;2023-04-27T10:30:38;94876.97;;;13.04;35.88
69524;BME280;56723;42.694;23.286;2023-04-27T10:33:09;94874.78;;;13.22;34.01
69524;BME280;56723;42.694;23.286;2023-04-27T10:35:43;94880.47;;;13.11;34.05
69524;BME280;56723;42.694;23.286;2023-04-27T10:38:14;94878.53;;;12.98;34.27
69524;BME280;56723;42.694;23.286;2023-04-27T10:40:56;94884.53;;;12.99;33.66
69524;BME280;56723;42.694;23.286;2023-04-27T10:43:26;94869.06;;;13.12;33.54
69524;BME280;56723;42.694;23.286;2023-04-27T10:45:54;94874.94;;;13.35;34.07
69524;BME280;56723;42.694;23.286;2023-04-27T10:48:32;94878.53;;;13.34;33.35
69524;BME280;56723;42.694;23.286;2023-04-27T10:51:00;94876.53;;;13.15;32.92
69524;BME280;56723;42.694;23.286;2023-04-27T10:53:35;94877.19;;;12.88;32.53
69524;BME280;56723;42.694;23.286;2023-04-27T10:56:04;94874.72;;;12.79;32.63
69524;BME280;56723;42.694;23.286;2023-04-27T10:58:34;94873.66;;;12.59;32.69
69524;BME280;56723;42.694;23.286;2023-04-27T11:01:25;94872.28;;;12.63;33.14
69524;BME280;56723;42.694;23.286;2023-04-27T11:03:57;94872.78;;;12.88;34.05
69524;BME280;56723;42.694;23.286;2023-04-27T11:06:25;94873.94;;;13.15;33.28
69524;BME280;56723;42.694;23.286;2023-04-27T11:08:54;94866.28;;;13.49;32.77
69524;BME280;56723;42.694;23.286;2023-04-27T11:11:21;94864.66;;;13.70;33.09
69524;BME280;56723;42.694;23.286;2023-04-27T11:13:49;94880.13;;;13.78;32.24
69524;BME280;56723;42.694;23.286;2023-04-27T11:16:18;94864.28;;;13.73;32.90
69524;BME280;56723;42.694;23.286;2023-04-27T11:18:46;94873.34;;;13.83;32.56
69524;BME280;56723;42.694;23.286;2023-04-27T11:21:17;94881.09;;;13.77;32.30
69524;BME280;56723;42.694;23.286;2023-04-27T11:23:47;94881.38;;;13.39;32.80
69524;BME280;56723;42.694;23.286;2023-04-27T11:26:16;94886.66;;;13.10;33.05
69524;BME280;56723;42.694;23.286;2023-04-27T11:28:45;94883.28;;;12.95;34.11
69524;BME280;56723;42.694;23.286;2023-04-27T11:31:22;94883.34;;;13.01;33.91
69524;BME280;56723;42.694;23.286;2023-04-27T11:33:49;94892.31;;;13.13;34.05
69524;BME280;56723;42.694;23.286;2023-04-27T11:36:18;94875.47;;;12.95;33.59
69524;BME280;56723;42.694;23.286;2023-04-27T11:38:46;94888.16;;;12.68;33.81
69524;BME280;56723;42.694;23.286;2023-04-27T11:41:14;94884.41;;;12.56;34.27
69524;BME280;56723;42.694;23.286;2023-04-27T11:43:42;94891.69;;;12.61;34.19
69524;BME280;56723;42.694;23.286;2023-04-27T11:46:12;94885.13;;;12.50;34.63
69524;BME280;56723;42.694;23.286;2023-04-27T11:48:40;94890.66;;;12.47;34.31
69524;BME280;56723;42.694;23.286;2023-04-27T11:51:09;94886.72;;;12.66;34.29
69524;BME280;56723;42.694;23.286;2023-04-27T11:53:39;94882.31;;;12.66;33.90
69524;BME280;56723;42.694;23.286;2023-04-27T11:56:09;94891.31;;;12.49;34.30
69524;BME280;56723;42.694;23.286;2023-04-27T11:58:37;94886.47;;;12.61;34.60
69524;BME280;56723;42.694;23.286;2023-04-27T12:01:05;94894.09;;;12.33;34.18
69524;BME280;56723;42.694;23.286;2023-04-27T12:03:33;94893.16;;;12.26;34.36
69524;BME280;56723;42.694;23.286;2023-04-27T12:06:01;94896.50;;;12.34;33.95
69524;BME280;56723;42.694;23.286;2023-04-27T12:08:31;94896.97;;;12.38;34.52
69524;BME280;56723;42.694;23.286;2023-04-27T12:10:58;94889.69;;;12.48;35.39
69524;BME280;56723;42.694;23.286;2023-04-27T12:13:26;94890.41;;;12.57;33.98
69524;BME280;56723;42.694;23.286;2023-04-27T12:15:53;94890.88;;;12.60;33.59
69524;BME280;56723;42.694;23.286;2023-04-27T12:18:20;94898.72;;;12.67;34.23
69524;BME280;56723;42.694;23.286;2023-04-27T12:20:47;94896.41;;;12.57;34.80
69524;BME280;56723;42.694;23.286;2023-04-27T12:23:14;94899.44;;;12.46;34.04
69524;BME280;56723;42.694;23.286;2023-04-27T12:25:41;94898.22;;;12.42;33.93
69524;BME280;56723;42.694;23.286;2023-04-27T12:28:09;94908.22;;;12.45;34.51
69524;BME280;56723;42.694;23.286;2023-04-27T12:30:37;94903.31;;;12.50;34.30
69524;BME280;56723;42.694;23.286;2023-04-27T12:33:04;94906.72;;;12.51;34.19
69524;BME280;56723;42.694;23.286;2023-04-27T12:35:36;94901.06;;;12.47;34.48
69524;BME280;56723;42.694;23.286;2023-04-27T12:38:04;94907.88;;;12.48;34.71
69524;BME280;56723;42.694;23.286;2023-04-27T12:40:32;94906.44;;;12.45;34.02
69524;BME280;56723;42.694;23.286;2023-04-27T12:42:59;94900.25;;;12.32;34.52
69524;BME280;56723;42.694;23.286;2023-04-27T12:45:27;94903.56;;;12.26;35.33
69524;BME280;56723;42.694;23.286;2023-04-27T12:47:54;94903.22;;;12.43;34.63
69524;BME280;56723;42.694;23.286;2023-04-27T12:50:35;94903.94;;;12.52;34.59
69524;BME280;56723;42.694;23.286;2023-04-27T12:53:03;94897.69;;;12.61;35.29
69524;BME280;56723;42.694;23.286;2023-04-27T12:55:30;94900.53;;;12.66;34.52
69524;BME280;56723;42.694;23.286;2023-04-27T12:57:59;94904.91;;;12.66;34.58
69524;BME280;56723;42.694;23.286;2023-04-27T13:00:26;94911.66;;;12.60;34.12
69524;BME280;56723;42.694;23.286;2023-04-27T13:02:55;94908.63;;;12.42;34.03
69524;BME280;56723;42.694;23.286;2023-04-27T13:05:23;94901.16;;;12.24;33.67
69524;BME280;56723;42.694;23.286;2023-04-27T13:07:50;94890.50;;;12.04;34.33
69524;BME280;56723;42.694;23.286;2023-04-27T13:10:17;94910.53;;;12.10;34.65
69524;BME280;56723;42.694;23.286;2023-04-27T13:12:44;94898.66;;;12.16;34.63
69524;BME280;56723;42.694;23.286;2023-04-27T13:15:11;94903.31;;;12.21;34.96
69524;BME280;56723;42.694;23.286;2023-04-27T13:17:38;94899.72;;;12.36;33.73
69524;BME280;56723;42.694;23.286;2023-04-27T13:20:09;94892.81;;;12.29;34.19
69524;BME280;56723;42.694;23.286;2023-04-27T13:22:37;94899.72;;;12.22;34.19
69524;BME280;56723;42.694;23.286;2023-04-27T13:25:06;94897.31;;;12.20;34.51
69524;BME280;56723;42.694;23.286;2023-04-27T13:27:35;94888.72;;;12.20;34.70
69524;BME280;56723;42.694;23.286;2023-04-27T13:30:02;94892.13;;;12.35;34.17
69524;BME280;56723;42.694;23.286;2023-04-27T13:32:30;94895.53;;;12.50;34.12
69524;BME280;56723;42.694;23.286;2023-04-27T13:34:58;94901.34;;;12.52;33.22
69524;BME280;56723;42.694;23.286;2023-04-27T13:37:25;94892.13;;;12.35;33.53
69524;BME280;56723;42.694;23.286;2023-04-27T13:39:53;94893.28;;;12.32;33.99
69524;BME280;56723;42.694;23.286;2023-04-27T13:42:20;94902.34;;;12.36;34.06
69524;BME280;56723;42.694;23.286;2023-04-27T13:44:47;94895.41;;;12.14;34.31
69524;BME280;56723;42.694;23.286;2023-04-27T13:47:14;94908.22;;;12.16;34.00
69524;BME280;56723;42.694;23.286;2023-04-27T13:49:41;94899.97;;;12.12;34.18
69524;BME280;56723;42.694;23.286;2023-04-27T13:52:08;94910.84;;;12.30;34.27
69524;BME280;56723;42.694;23.286;2023-04-27T13:54:35;94896.16;;;12.37;33.84
69524;BME280;56723;42.694;23.286;2023-04-27T13:57:02;94907.34;;;12.38;33.94
69524;BME280;56723;42.694;23.286;2023-04-27T13:59:29;94902.78;;;12.40;33.96
69524;BME280;56723;42.694;23.286;2023-04-27T14:01:56;94910.59;;;12.40;34.01
69524;BME280;56723;42.694;23.286;2023-04-27T14:04:24;94916.94;;;12.37;34.12
69524;BME280;56723;42.694;23.286;2023-04-27T14:06:51;94907.78;;;12.27;34.03
69524;BME280;56723;42.694;23.286;2023-04-27T14:09:18;94913.78;;;12.27;34.11
69524;BME280;56723;42.694;23.286;2023-04-27T14:11:45;94924.34;;;12.26;33.91
69524;BME280;56723;42.694;23.286;2023-04-27T14:14:22;94917.81;;;12.15;33.91
69524;BME280;56723;42.694;23.286;2023-04-27T14:16:50;94918.50;;;12.09;34.31
69524;BME280;56723;42.694;23.286;2023-04-27T14:19:17;94925.50;;;12.08;34.18
69524;BME280;56723;42.694;23.286;2023-04-27T14:21:48;94929.44;;;12.04;34.08
69524;BME280;56723;42.694;23.286;2023-04-27T14:24:15;94934.91;;;12.09;33.83
69524;BME280;56723;42.694;23.286;2023-04-27T14:26:42;94933.03;;;12.03;34.68
69524;BME280;56723;42.694;23.286;2023-04-27T14:29:10;94945.03;;;12.04;34.20
69524;BME280;56723;42.694;23.286;2023-04-27T14:31:38;94945.19;;;12.03;34.33
69524;BME280;56723;42.694;23.286;2023-04-27T14:34:06;94945.72;;;11.98;34.16
69524;BME280;56723;42.694;23.286;2023-04-27T14:36:34;94943.13;;;11.98;34.04
69524;BME280;56723;42.694;23.286;2023-04-27T14:39:02;94952.34;;;12.01;34.46
69524;BME280;56723;42.694;23.286;2023-04-27T14:41:30;94960.03;;;11.94;34.14
69524;BME280;56723;42.694;23.286;2023-04-27T14:43:57;94953.38;;;11.92;33.87
69524;BME280;56723;42.694;23.286;2023-04-27T14:46:24;94947.50;;;11.75;34.19
69524;BME280;56723;42.694;23.286;2023-04-27T14:48:51;94949.88;;;11.62;34.47
69524;BME280;56723;42.694;23.286;2023-04-27T14:51:18;94952.94;;;11.65;34.34
69524;BME280;56723;42.694;23.286;2023-04-27T14:53:45;94956.25;;;11.74;34.68
69524;BME280;56723;42.694;23.286;2023-04-27T14:56:12;94963.19;;;12.04;34.12
69524;BME280;56723;42.694;23.286;2023-04-27T14:58:39;94957.88;;;12.21;33.27
69524;BME280;56723;42.694;23.286;2023-04-27T15:01:07;94971.34;;;12.39;33.60
69524;BME280;56723;42.694;23.286;2023-04-27T15:03:34;94976.44;;;12.47;33.33
69524;BME280;56723;42.694;23.286;2023-04-27T15:06:01;94975.06;;;12.22;33.64
69524;BME280;56723;42.694;23.286;2023-04-27T15:08:28;94978.06;;;12.10;33.74
69524;BME280;56723;42.694;23.286;2023-04-27T15:10:59;94979.66;;;11.97;33.76
69524;BME280;56723;42.694;23.286;2023-04-27T15:13:26;94986.88;;;11.87;33.90
69524;BME280;56723;42.694;23.286;2023-04-27T15:15:54;94982.13;;;11.90;34.12
69524;BME280;56723;42.694;23.286;2023-04-27T15:18:23;94983.75;;;11.91;34.06
69524;BME280;56723;42.694;23.286;2023-04-27T15:20:51;94974.75;;;11.71;34.03
69524;BME280;56723;42.694;23.286;2023-04-27T15:23:20;94988.31;;;11.58;34.68
69524;BME280;56723;42.694;23.286;2023-04-27T15:25:48;94984.63;;;11.53;34.88
69524;BME280;56723;42.694;23.286;2023-04-27T15:28:15;94989.94;;;11.59;33.90
69524;BME280;56723;42.694;23.286;2023-04-27T15:30:43;94993.75;;;11.49;34.26
69524;BME280;56723;42.694;23.286;2023-04-27T15:33:12;94995.72;;;11.38;34.22
69524;BME280;56723;42.694;23.286;2023-04-27T15:35:39;94992.22;;;11.31;34.54
69524;BME280;56723;42.694;23.286;2023-04-27T15:38:09;94990.22;;;11.33;35.02
69524;BME280;56723;42.694;23.286;2023-04-27T15:40:38;94991.84;;;11.34;35.20
69524;BME280;56723;42.694;23.286;2023-04-27T15:43:05;94986.91;;;11.25;35.03
69524;BME280;56723;42.694;23.286;2023-04-27T15:45:34;95002.03;;;11.13;35.12
69524;BME280;56723;42.694;23.286;2023-04-27T15:48:02;94992.16;;;11.08;35.24
69524;BME280;56723;42.694;23.286;2023-04-27T15:50:29;94997.84;;;11.04;35.70
69524;BME280;56723;42.694;23.286;2023-04-27T15:52:57;95003.41;;;10.93;36.16
69524;BME280;56723;42.694;23.286;2023-04-27T15:55:24;94999.69;;;10.87;36.48
69524;BME280;56723;42.694;23.286;2023-04-27T15:57:52;95006.00;;;10.85;36.14
69524;BME280;56723;42.694;23.286;2023-04-27T16:00:19;95005.19;;;10.84;36.56
69524;BME280;56723;42.694;23.286;2023-04-27T16:02:48;95005.84;;;10.78;36.27
69524;BME280;56723;42.694;23.286;2023-04-27T16:05:15;94995.06;;;10.66;36.33
69524;BME280;56723;42.694;23.286;2023-04-27T16:07:43;95016.06;;;10.80;36.57
69524;BME280;56723;42.694;23.286;2023-04-27T16:10:11;95008.66;;;10.68;36.30
69524;BME280;56723;42.694;23.286;2023-04-27T16:12:39;95008.66;;;10.60;36.92
69524;BME280;56723;42.694;23.286;2023-04-27T16:15:07;95017.41;;;10.59;37.06
69524;BME280;56723;42.694;23.286;2023-04-27T16:17:37;95000.91;;;10.52;37.31
69524;BME280;56723;42.694;23.286;2023-04-27T16:20:05;95019.69;;;10.54;37.50
69524;BME280;56723;42.694;23.286;2023-04-27T16:22:33;95021.50;;;10.37;37.94
69524;BME280;56723;42.694;23.286;2023-04-27T16:25:00;95028.59;;;10.44;38.09
69524;BME280;56723;42.694;23.286;2023-04-27T16:27:28;95040.75;;;10.43;38.43
69524;BME280;56723;42.694;23.286;2023-04-27T16:46:08;95043.97;;;10.04;40.14
69524;BME280;56723;42.694;23.286;2023-04-27T16:48:35;95047.56;;;10.20;40.08
69524;BME280;56723;42.694;23.286;2023-04-27T16:51:03;95068.28;;;10.36;40.03
69524;BME280;56723;42.694;23.286;2023-04-27T16:53:30;95056.78;;;10.47;39.55
69524;BME280;56723;42.694;23.286;2023-04-27T16:56:00;95071.97;;;10.58;39.48
69524;BME280;56723;42.694;23.286;2023-04-27T16:58:28;95074.41;;;10.59;39.50
69524;BME280;56723;42.694;23.286;2023-04-27T17:00:55;95066.50;;;10.53;39.69
